sensor_id;sensor_type;location;lat;lon;timestamp;temperature;humidity
22065;DHT22;11197;53.110;8.468;2023-03-23T00:01:58;11.10;99.90
22065;DHT22;11197;53.110;8.468;2023-03-23T00:04:24;11.10;99.90
22065;DHT22;11197;53.110;8.468;2023-03-23T00:06:51;11.10;99.90
22065;DHT22;11197;53.110;8.468;2023-03-23T00:09:17;11.10;99.90
22065;DHT22;11197;53.110;8.468;2023-03-23T00:11:50;11.10;99.90
22065;DHT22;11197;53.110;8.468;2023-03-23T00:14:16;11.20;99.90
22065;DHT22;11197;53.110;8.468;2023-03-23T00:16:48;11.10;99.90
22065;DHT22;11197;53.110;8.468;2023-03-23T00:19:15;11.20;99.90
22065;DHT22;11197;53.110;8.468;2023-03-23T00:21:43;11.20;99.90
22065;DHT22;11197;53.110;8.468;2023-03-23T00:24:14;11.20;99.90
22065;DHT22;11197;53.110;8.468;2023-03-23T00:26:43;11.20;99.90
22065;DHT22;11197;53.110;8.468;2023-03-23T00:29:16;11.20;99.90
22065;DHT22;11197;53.110;8.468;2023-03-23T00:31:43;11.20;99.90
22065;DHT22;11197;53.110;8.468;2023-03-23T00:34:15;11.20;99.90
22065;DHT22;11197;53.110;8.468;2023-03-23T00:36:49;11.20;99.90
22065;DHT22;11197;53.110;8.468;2023-03-23T00:39:17;11.20;99.90
22065;DHT22;11197;53.110;8.468;2023-03-23T00:41:44;11.20;99.90
22065;DHT22;11197;53.110;8.468;2023-03-23T00:44:11;11.20;99.90
22065;DHT22;11197;53.110;8.468;2023-03-23T00:46:44;11.20;99.90
22065;DHT22;11197;53.110;8.468;2023-03-23T00:49:17;11.20;99.90
22065;DHT22;11197;53.110;8.468;2023-03-23T00:51:44;11.30;99.90
22065;DHT22;11197;53.110;8.468;2023-03-23T00:54:11;11.30;99.90
22065;DHT22;11197;53.110;8.468;2023-03-23T00:56:37;11.20;99.90
22065;DHT22;11197;53.110;8.468;2023-03-23T00:59:05;11.20;99.90
22065;DHT22;11197;53.110;8.468;2023-03-23T01:01:31;11.20;99.90
22065;DHT22;11197;53.110;8.468;2023-03-23T01:03:59;11.20;99.90
22065;DHT22;11197;53.110;8.468;2023-03-23T01:06:37;11.20;99.90
22065;DHT22;11197;53.110;8.468;2023-03-23T01:09:11;11.20;99.90
22065;DHT22;11197;53.110;8.468;2023-03-23T01:11:41;11.30;99.90
22065;DHT22;11197;53.110;8.468;2023-03-23T01:14:08;11.30;99.90
22065;DHT22;11197;53.110;8.468;2023-03-23T01:16:34;11.20;99.90
22065;DHT22;11197;53.110;8.468;2023-03-23T01:19:00;11.20;99.90
22065;DHT22;11197;53.110;8.468;2023-03-23T01:21:26;11.30;99.90
22065;DHT22;11197;53.110;8.468;2023-03-23T01:23:52;11.30;99.90
22065;DHT22;11197;53.110;8.468;2023-03-23T01:26:24;11.20;99.90
22065;DHT22;11197;53.110;8.468;2023-03-23T01:28:50;11.30;99.90
22065;DHT22;11197;53.110;8.468;2023-03-23T01:31:19;11.30;99.90
22065;DHT22;11197;53.110;8.468;2023-03-23T01:33:47;11.20;99.90
22065;DHT22;11197;53.110;8.468;2023-03-23T01:36:19;11.30;99.90
22065;DHT22;11197;53.110;8.468;2023-03-23T01:38:47;11.30;99.90
22065;DHT22;11197;53.110;8.468;2023-03-23T01:41:14;11.30;99.90
22065;DHT22;11197;53.110;8.468;2023-03-23T01:44:03;11.30;99.90
22065;DHT22;11197;53.110;8.468;2023-03-23T01:46:44;11.30;99.90
22065;DHT22;11197;53.110;8.468;2023-03-23T01:49:15;11.20;99.90
22065;DHT22;11197;53.110;8.468;2023-03-23T01:51:55;11.30;99.90
22065;DHT22;11197;53.110;8.468;2023-03-23T01:54:23;11.20;99.90
22065;DHT22;11197;53.110;8.468;2023-03-23T01:57:02;11.30;99.90
22065;DHT22;11197;53.110;8.468;2023-03-23T01:59:30;11.30;99.90
22065;DHT22;11197;53.110;8.468;2023-03-23T02:02:23;11.30;99.90
22065;DHT22;11197;53.110;8.468;2023-03-23T02:04:51;11.30;99.90
22065;DHT22;11197;53.110;8.468;2023-03-23T02:07:20;11.30;99.90
22065;DHT22;11197;53.110;8.468;2023-03-23T02:09:50;11.30;99.90
22065;DHT22;11197;53.110;8.468;2023-03-23T02:12:17;11.30;99.90
22065;DHT22;11197;53.110;8.468;2023-03-23T02:14:43;11.30;99.90
22065;DHT22;11197;53.110;8.468;2023-03-23T02:17:10;11.30;99.90
22065;DHT22;11197;53.110;8.468;2023-03-23T02:39:08;11.30;99.90
22065;DHT22;11197;53.110;8.468;2023-03-23T02:41:48;11.30;99.90
22065;DHT22;11197;53.110;8.468;2023-03-23T02:44:16;11.30;99.90
22065;DHT22;11197;53.110;8.468;2023-03-23T02:46:44;11.20;99.90
22065;DHT22;11197;53.110;8.468;2023-03-23T02:49:13;11.20;99.90
22065;DHT22;11197;53.110;8.468;2023-03-23T02:51:44;11.30;99.90
22065;DHT22;11197;53.110;8.468;2023-03-23T02:54:12;11.20;99.90
22065;DHT22;11197;53.110;8.468;2023-03-23T02:56:40;11.20;99.90
22065;DHT22;11197;53.110;8.468;2023-03-23T02:59:14;11.20;99.90
22065;DHT22;11197;53.110;8.468;2023-03-23T03:04:11;11.20;99.90
22065;DHT22;11197;53.110;8.468;2023-03-23T03:07:07;11.20;99.90
22065;DHT22;11197;53.110;8.468;2023-03-23T03:09:49;11.20;99.90
22065;DHT22;11197;53.110;8.468;2023-03-23T03:12:53;11.20;99.90
22065;DHT22;11197;53.110;8.468;2023-03-23T03:15:25;11.20;99.90
22065;DHT22;11197;53.110;8.468;2023-03-23T03:20:33;11.20;99.90
22065;DHT22;11197;53.110;8.468;2023-03-23T03:23:01;11.20;99.90
22065;DHT22;11197;53.110;8.468;2023-03-23T03:25:29;11.20;99.90
22065;DHT22;11197;53.110;8.468;2023-03-23T03:27:56;11.20;99.90
22065;DHT22;11197;53.110;8.468;2023-03-23T03:30:38;11.20;99.90
22065;DHT22;11197;53.110;8.468;2023-03-23T03:33:04;11.20;99.90
22065;DHT22;11197;53.110;8.468;2023-03-23T03:35:36;11.20;99.90
22065;DHT22;11197;53.110;8.468;2023-03-23T03:38:08;11.20;99.90
22065;DHT22;11197;53.110;8.468;2023-03-23T03:40:35;11.20;99.90
22065;DHT22;11197;53.110;8.468;2023-03-23T03:43:04;11.30;99.90
22065;DHT22;11197;53.110;8.468;2023-03-23T03:45:31;11.30;99.90
22065;DHT22;11197;53.110;8.468;2023-03-23T03:47:57;11.30;99.90
22065;DHT22;11197;53.110;8.468;2023-03-23T03:50:23;11.30;99.90
22065;DHT22;11197;53.110;8.468;2023-03-23T03:52:49;11.30;99.90
22065;DHT22;11197;53.110;8.468;2023-03-23T03:55:15;11.30;99.90
22065;DHT22;11197;53.110;8.468;2023-03-23T03:57:46;11.30;99.90
22065;DHT22;11197;53.110;8.468;2023-03-23T04:00:42;11.30;99.90
22065;DHT22;11197;53.110;8.468;2023-03-23T04:03:09;11.30;99.90
22065;DHT22;11197;53.110;8.468;2023-03-23T04:05:57;11.20;99.90
22065;DHT22;11197;53.110;8.468;2023-03-23T04:08:25;11.30;99.90
22065;DHT22;11197;53.110;8.468;2023-03-23T04:10:54;11.30;99.90
22065;DHT22;11197;53.110;8.468;2023-03-23T04:13:21;11.30;99.90
22065;DHT22;11197;53.110;8.468;2023-03-23T04:16:26;11.30;99.90
22065;DHT22;11197;53.110;8.468;2023-03-23T04:18:56;11.30;99.90
22065;DHT22;11197;53.110;8.468;2023-03-23T04:21:26;11.30;99.90
22065;DHT22;11197;53.110;8.468;2023-03-23T04:23:57;11.30;99.90
22065;DHT22;11197;53.110;8.468;2023-03-23T04:26:28;11.30;99.90
22065;DHT22;11197;53.110;8.468;2023-03-23T04:28:59;11.30;99.90
22065;DHT22;11197;53.110;8.468;2023-03-23T04:31:35;11.30;99.90
22065;DHT22;11197;53.110;8.468;2023-03-23T04:34:11;11.30;99.90
22065;DHT22;11197;53.110;8.468;2023-03-23T04:36:46;11.30;99.90
22065;DHT22;11197;53.110;8.468;2023-03-23T04:39:17;11.30;99.90
22065;DHT22;11197;53.110;8.468;2023-03-23T04:41:44;11.30;99.90
22065;DHT22;11197;53.110;8.468;2023-03-23T04:44:41;11.20;99.90
22065;DHT22;11197;53.110;8.468;2023-03-23T04:47:13;11.20;99.90
22065;DHT22;11197;53.110;8.468;2023-03-23T04:49:51;11.30;99.90
22065;DHT22;11197;53.110;8.468;2023-03-23T04:52:33;11.20;99.90
22065;DHT22;11197;53.110;8.468;2023-03-23T04:55:05;11.20;99.90
22065;DHT22;11197;53.110;8.468;2023-03-23T04:57:32;11.30;99.90
22065;DHT22;11197;53.110;8.468;2023-03-23T05:00:20;11.20;99.90
22065;DHT22;11197;53.110;8.468;2023-03-23T05:02:53;11.20;99.90
22065;DHT22;11197;53.110;8.468;2023-03-23T05:05:23;11.20;99.90
22065;DHT22;11197;53.110;8.468;2023-03-23T05:07:52;11.20;99.90
22065;DHT22;11197;53.110;8.468;2023-03-23T05:10:21;11.20;99.90
22065;DHT22;11197;53.110;8.468;2023-03-23T05:12:52;11.20;99.90
22065;DHT22;11197;53.110;8.468;2023-03-23T05:15:18;11.30;99.90
22065;DHT22;11197;53.110;8.468;2023-03-23T05:17:45;11.30;99.90
22065;DHT22;11197;53.110;8.468;2023-03-23T05:20:16;11.30;99.90
22065;DHT22;11197;53.110;8.468;2023-03-23T05:22:48;11.30;99.90
22065;DHT22;11197;53.110;8.468;2023-03-23T05:25:26;11.30;99.90
22065;DHT22;11197;53.110;8.468;2023-03-23T05:28:08;11.30;99.90
22065;DHT22;11197;53.110;8.468;2023-03-23T05:30:56;11.30;99.90
22065;DHT22;11197;53.110;8.468;2023-03-23T05:33:26;11.30;99.90
22065;DHT22;11197;53.110;8.468;2023-03-23T05:36:11;11.20;99.90
22065;DHT22;11197;53.110;8.468;2023-03-23T05:39:11;11.20;99.90
22065;DHT22;11197;53.110;8.468;2023-03-23T05:42:07;11.20;99.90
22065;DHT22;11197;53.110;8.468;2023-03-23T05:44:49;11.30;99.90
22065;DHT22;11197;53.110;8.468;2023-03-23T05:47:16;11.30;99.90
22065;DHT22;11197;53.110;8.468;2023-03-23T05:49:49;11.30;99.90
22065;DHT22;11197;53.110;8.468;2023-03-23T05:52:18;11.30;99.90
22065;DHT22;11197;53.110;8.468;2023-03-23T05:54:46;11.30;99.90
22065;DHT22;11197;53.110;8.468;2023-03-23T05:57:13;11.30;99.90
22065;DHT22;11197;53.110;8.468;2023-03-23T05:59:46;11.30;99.90
22065;DHT22;11197;53.110;8.468;2023-03-23T06:02:18;11.30;99.90
22065;DHT22;11197;53.110;8.468;2023-03-23T06:04:44;11.20;99.90
22065;DHT22;11197;53.110;8.468;2023-03-23T06:07:25;11.20;99.90
22065;DHT22;11197;53.110;8.468;2023-03-23T06:09:57;11.30;99.90
22065;DHT22;11197;53.110;8.468;2023-03-23T06:12:36;11.20;99.90
22065;DHT22;11197;53.110;8.468;2023-03-23T06:15:12;11.30;99.90
22065;DHT22;11197;53.110;8.468;2023-03-23T06:18:11;11.30;99.90
22065;DHT22;11197;53.110;8.468;2023-03-23T06:20:58;11.30;99.90
22065;DHT22;11197;53.110;8.468;2023-03-23T06:23:43;11.30;99.90
22065;DHT22;11197;53.110;8.468;2023-03-23T06:26:12;11.30;99.90
22065;DHT22;11197;53.110;8.468;2023-03-23T06:28:44;11.40;99.90
22065;DHT22;11197;53.110;8.468;2023-03-23T06:31:10;11.40;99.90
22065;DHT22;11197;53.110;8.468;2023-03-23T06:33:37;11.40;99.90
22065;DHT22;11197;53.110;8.468;2023-03-23T06:36:26;11.40;99.90
22065;DHT22;11197;53.110;8.468;2023-03-23T06:39:11;11.40;99.90
22065;DHT22;11197;53.110;8.468;2023-03-23T06:42:11;11.40;99.90
22065;DHT22;11197;53.110;8.468;2023-03-23T06:44:42;11.50;99.90
22065;DHT22;11197;53.110;8.468;2023-03-23T06:47:11;11.50;99.90
22065;DHT22;11197;53.110;8.468;2023-03-23T06:49:42;11.50;99.90
22065;DHT22;11197;53.110;8.468;2023-03-23T06:52:15;11.50;99.90
22065;DHT22;11197;53.110;8.468;2023-03-23T06:54:42;11.50;99.90
22065;DHT22;11197;53.110;8.468;2023-03-23T06:57:09;11.60;99.90
22065;DHT22;11197;53.110;8.468;2023-03-23T06:59:36;11.50;99.90
22065;DHT22;11197;53.110;8.468;2023-03-23T07:02:03;11.50;99.90
22065;DHT22;11197;53.110;8.468;2023-03-23T07:04:31;11.50;99.90
22065;DHT22;11197;53.110;8.468;2023-03-23T07:07:09;11.50;99.90
22065;DHT22;11197;53.110;8.468;2023-03-23T07:09:45;11.50;99.90
22065;DHT22;11197;53.110;8.468;2023-03-23T07:12:14;11.50;99.90
22065;DHT22;11197;53.110;8.468;2023-03-23T07:14:45;11.40;99.90
22065;DHT22;11197;53.110;8.468;2023-03-23T07:17:11;11.40;99.90
22065;DHT22;11197;53.110;8.468;2023-03-23T07:19:45;11.40;99.90
22065;DHT22;11197;53.110;8.468;2023-03-23T07:22:15;11.30;99.90
22065;DHT22;11197;53.110;8.468;2023-03-23T07:24:46;11.30;99.90
22065;DHT22;11197;53.110;8.468;2023-03-23T07:27:21;11.20;99.90
22065;DHT22;11197;53.110;8.468;2023-03-23T07:29:51;11.20;99.90
22065;DHT22;11197;53.110;8.468;2023-03-23T07:32:22;11.10;99.90
22065;DHT22;11197;53.110;8.468;2023-03-23T07:34:48;11.10;99.90
22065;DHT22;11197;53.110;8.468;2023-03-23T07:37:22;11.00;99.90
22065;DHT22;11197;53.110;8.468;2023-03-23T07:39:49;11.00;99.90
22065;DHT22;11197;53.110;8.468;2023-03-23T07:42:15;10.90;99.90
22065;DHT22;11197;53.110;8.468;2023-03-23T07:44:47;11.00;99.90
22065;DHT22;11197;53.110;8.468;2023-03-23T07:47:14;11.00;99.90
22065;DHT22;11197;53.110;8.468;2023-03-23T07:49:40;11.00;99.90
22065;DHT22;11197;53.110;8.468;2023-03-23T07:52:29;10.90;99.90
22065;DHT22;11197;53.110;8.468;2023-03-23T07:55:01;10.90;99.90
22065;DHT22;11197;53.110;8.468;2023-03-23T07:57:47;11.00;99.90
22065;DHT22;11197;53.110;8.468;2023-03-23T08:00:16;11.00;99.90
22065;DHT22;11197;53.110;8.468;2023-03-23T08:02:47;11.00;99.90
22065;DHT22;11197;53.110;8.468;2023-03-23T08:05:33;11.00;99.90
22065;DHT22;11197;53.110;8.468;2023-03-23T08:08:15;11.00;99.90
22065;DHT22;11197;53.110;8.468;2023-03-23T08:10:59;11.00;99.90
22065;DHT22;11197;53.110;8.468;2023-03-23T08:13:41;11.00;99.90
22065;DHT22;11197;53.110;8.468;2023-03-23T08:16:37;11.10;99.90
22065;DHT22;11197;53.110;8.468;2023-03-23T08:19:35;11.10;99.90
22065;DHT22;11197;53.110;8.468;2023-03-23T08:22:21;11.10;99.90
22065;DHT22;11197;53.110;8.468;2023-03-23T08:25:14;11.10;99.90
22065;DHT22;11197;53.110;8.468;2023-03-23T08:28:03;11.20;99.90
22065;DHT22;11197;53.110;8.468;2023-03-23T08:30:48;11.20;99.90
22065;DHT22;11197;53.110;8.468;2023-03-23T08:33:41;11.20;99.90
22065;DHT22;11197;53.110;8.468;2023-03-23T08:36:27;11.30;99.90
22065;DHT22;11197;53.110;8.468;2023-03-23T08:39:05;11.30;99.90
22065;DHT22;11197;53.110;8.468;2023-03-23T08:41:37;11.30;99.90
22065;DHT22;11197;53.110;8.468;2023-03-23T08:44:26;11.30;99.90
22065;DHT22;11197;53.110;8.468;2023-03-23T08:47:08;11.30;99.90
22065;DHT22;11197;53.110;8.468;2023-03-23T08:49:55;11.30;99.90
22065;DHT22;11197;53.110;8.468;2023-03-23T08:52:40;11.80;99.90
22065;DHT22;11197;53.110;8.468;2023-03-23T08:55:32;12.20;99.90
22065;DHT22;11197;53.110;8.468;2023-03-23T08:58:13;12.40;99.90
22065;DHT22;11197;53.110;8.468;2023-03-23T09:01:08;12.40;99.90
22065;DHT22;11197;53.110;8.468;2023-03-23T09:03:59;12.20;99.90
22065;DHT22;11197;53.110;8.468;2023-03-23T09:06:55;12.20;99.90
22065;DHT22;11197;53.110;8.468;2023-03-23T09:09:22;12.10;99.90
22065;DHT22;11197;53.110;8.468;2023-03-23T09:11:48;11.90;99.90
22065;DHT22;11197;53.110;8.468;2023-03-23T09:14:14;11.90;99.90
22065;DHT22;11197;53.110;8.468;2023-03-23T09:16:40;11.90;99.90
22065;DHT22;11197;53.110;8.468;2023-03-23T09:19:06;11.90;99.90
22065;DHT22;11197;53.110;8.468;2023-03-23T09:21:34;11.90;99.90
22065;DHT22;11197;53.110;8.468;2023-03-23T09:24:01;11.80;99.90
22065;DHT22;11197;53.110;8.468;2023-03-23T09:26:28;11.80;99.90
22065;DHT22;11197;53.110;8.468;2023-03-23T09:28:54;11.80;99.90
22065;DHT22;11197;53.110;8.468;2023-03-23T09:31:22;11.90;99.90
22065;DHT22;11197;53.110;8.468;2023-03-23T09:33:52;11.90;99.90
22065;DHT22;11197;53.110;8.468;2023-03-23T09:36:21;11.90;99.90
22065;DHT22;11197;53.110;8.468;2023-03-23T09:38:51;12.00;99.90
22065;DHT22;11197;53.110;8.468;2023-03-23T09:41:37;12.00;99.90
22065;DHT22;11197;53.110;8.468;2023-03-23T09:47:57;12.10;99.90
22065;DHT22;11197;53.110;8.468;2023-03-23T09:50:19;12.20;99.90
22065;DHT22;11197;53.110;8.468;2023-03-23T09:52:55;12.20;99.90
22065;DHT22;11197;53.110;8.468;2023-03-23T09:55:22;12.20;99.90
22065;DHT22;11197;53.110;8.468;2023-03-23T09:58:18;12.20;99.90
22065;DHT22;11197;53.110;8.468;2023-03-23T10:03:27;12.30;99.90
22065;DHT22;11197;53.110;8.468;2023-03-23T10:05:56;12.30;99.90
22065;DHT22;11197;53.110;8.468;2023-03-23T10:08:24;12.40;99.90
22065;DHT22;11197;53.110;8.468;2023-03-23T10:11:12;12.40;99.90
22065;DHT22;11197;53.110;8.468;2023-03-23T10:16:15;12.50;99.90
22065;DHT22;11197;53.110;8.468;2023-03-23T10:21:37;12.50;99.90
22065;DHT22;11197;53.110;8.468;2023-03-23T10:24:08;12.50;99.90
22065;DHT22;11197;53.110;8.468;2023-03-23T10:32:13;12.60;99.90
22065;DHT22;11197;53.110;8.468;2023-03-23T10:34:58;12.60;99.90
22065;DHT22;11197;53.110;8.468;2023-03-23T10:37:31;12.60;99.90
22065;DHT22;11197;53.110;8.468;2023-03-23T10:40:00;12.60;99.90
22065;DHT22;11197;53.110;8.468;2023-03-23T10:42:31;12.60;99.90
22065;DHT22;11197;53.110;8.468;2023-03-23T10:47:46;12.60;99.90
22065;DHT22;11197;53.110;8.468;2023-03-23T10:50:16;12.60;99.90
22065;DHT22;11197;53.110;8.468;2023-03-23T10:52:44;12.70;99.90
22065;DHT22;11197;53.110;8.468;2023-03-23T10:55:17;12.70;99.90
22065;DHT22;11197;53.110;8.468;2023-03-23T10:57:46;12.80;99.90
22065;DHT22;11197;53.110;8.468;2023-03-23T11:00:21;12.80;99.90
22065;DHT22;11197;53.110;8.468;2023-03-23T11:03:04;12.80;99.90
22065;DHT22;11197;53.110;8.468;2023-03-23T11:05:44;12.80;99.90
22065;DHT22;11197;53.110;8.468;2023-03-23T11:09:14;12.80;99.90
22065;DHT22;11197;53.110;8.468;2023-03-23T11:11:15;12.80;99.90
22065;DHT22;11197;53.110;8.468;2023-03-23T11:13:46;12.80;99.90
22065;DHT22;11197;53.110;8.468;2023-03-23T11:16:33;12.80;99.90
22065;DHT22;11197;53.110;8.468;2023-03-23T11:19:11;12.80;99.90
22065;DHT22;11197;53.110;8.468;2023-03-23T11:21:39;12.90;99.90
22065;DHT22;11197;53.110;8.468;2023-03-23T11:24:05;12.90;99.90
22065;DHT22;11197;53.110;8.468;2023-03-23T11:26:33;12.90;99.90
22065;DHT22;11197;53.110;8.468;2023-03-23T11:31:49;12.90;99.90
22065;DHT22;11197;53.110;8.468;2023-03-23T11:34:32;13.00;99.90
22065;DHT22;11197;53.110;8.468;2023-03-23T11:39:54;13.10;99.90
22065;DHT22;11197;53.110;8.468;2023-03-23T11:43:17;13.10;99.90
22065;DHT22;11197;53.110;8.468;2023-03-23T11:50:32;13.20;99.90
22065;DHT22;11197;53.110;8.468;2023-03-23T11:53:10;13.30;99.90
22065;DHT22;11197;53.110;8.468;2023-03-23T11:58:13;13.30;99.90
22065;DHT22;11197;53.110;8.468;2023-03-23T12:00:44;13.40;99.90
22065;DHT22;11197;53.110;8.468;2023-03-23T12:09:12;13.60;99.90
22065;DHT22;11197;53.110;8.468;2023-03-23T12:14:33;13.70;99.90
22065;DHT22;11197;53.110;8.468;2023-03-23T12:22:50;13.80;99.90
22065;DHT22;11197;53.110;8.468;2023-03-23T12:28:19;13.90;99.90
22065;DHT22;11197;53.110;8.468;2023-03-23T12:44:25;13.90;99.90
22065;DHT22;11197;53.110;8.468;2023-03-23T12:49:59;13.90;99.90
22065;DHT22;11197;53.110;8.468;2023-03-23T12:52:50;13.90;99.90
22065;DHT22;11197;53.110;8.468;2023-03-23T12:55:38;14.00;99.90
22065;DHT22;11197;53.110;8.468;2023-03-23T13:01:06;14.10;99.90
22065;DHT22;11197;53.110;8.468;2023-03-23T13:03:46;14.10;99.90
22065;DHT22;11197;53.110;8.468;2023-03-23T13:06:27;14.20;99.90
22065;DHT22;11197;53.110;8.468;2023-03-23T13:11:37;14.20;99.90
22065;DHT22;11197;53.110;8.468;2023-03-23T13:28:17;14.10;99.90
22065;DHT22;11197;53.110;8.468;2023-03-23T13:30:54;14.10;99.90
22065;DHT22;11197;53.110;8.468;2023-03-23T13:33:20;14.10;99.90
22065;DHT22;11197;53.110;8.468;2023-03-23T13:35:48;14.00;99.90
22065;DHT22;11197;53.110;8.468;2023-03-23T13:38:23;14.00;99.90
22065;DHT22;11197;53.110;8.468;2023-03-23T13:40:51;13.90;99.90
22065;DHT22;11197;53.110;8.468;2023-03-23T13:45:53;13.90;99.90
22065;DHT22;11197;53.110;8.468;2023-03-23T13:48:24;13.80;99.90
22065;DHT22;11197;53.110;8.468;2023-03-23T13:50:59;13.80;99.90
22065;DHT22;11197;53.110;8.468;2023-03-23T13:53:35;13.70;99.90
22065;DHT22;11197;53.110;8.468;2023-03-23T13:59:05;13.50;99.90
22065;DHT22;11197;53.110;8.468;2023-03-23T14:01:37;13.40;99.90
22065;DHT22;11197;53.110;8.468;2023-03-23T14:04:14;13.20;99.90
22065;DHT22;11197;53.110;8.468;2023-03-23T14:06:41;13.20;99.90
22065;DHT22;11197;53.110;8.468;2023-03-23T14:09:30;13.20;99.90
22065;DHT22;11197;53.110;8.468;2023-03-23T14:12:05;13.30;99.90
22065;DHT22;11197;53.110;8.468;2023-03-23T14:14:50;13.30;99.90
22065;DHT22;11197;53.110;8.468;2023-03-23T14:17:22;13.40;99.90
22065;DHT22;11197;53.110;8.468;2023-03-23T14:19:52;13.40;99.90
22065;DHT22;11197;53.110;8.468;2023-03-23T14:22:28;13.50;99.90
22065;DHT22;11197;53.110;8.468;2023-03-23T14:25:17;13.60;99.90
22065;DHT22;11197;53.110;8.468;2023-03-23T14:27:44;13.60;99.90
22065;DHT22;11197;53.110;8.468;2023-03-23T14:30:16;13.70;99.90
22065;DHT22;11197;53.110;8.468;2023-03-23T14:32:43;13.80;99.90
22065;DHT22;11197;53.110;8.468;2023-03-23T14:35:32;13.90;99.90
22065;DHT22;11197;53.110;8.468;2023-03-23T14:37:58;13.90;99.90
22065;DHT22;11197;53.110;8.468;2023-03-23T14:40:27;14.00;99.90
22065;DHT22;11197;53.110;8.468;2023-03-23T14:42:53;14.00;99.90
22065;DHT22;11197;53.110;8.468;2023-03-23T14:45:21;14.00;99.90
22065;DHT22;11197;53.110;8.468;2023-03-23T14:47:57;14.10;99.90
22065;DHT22;11197;53.110;8.468;2023-03-23T14:50:30;14.10;99.90
22065;DHT22;11197;53.110;8.468;2023-03-23T14:53:12;14.20;99.90
22065;DHT22;11197;53.110;8.468;2023-03-23T14:55:42;14.30;99.90
22065;DHT22;11197;53.110;8.468;2023-03-23T14:58:12;14.40;99.90
22065;DHT22;11197;53.110;8.468;2023-03-23T15:03:28;14.50;99.90
22065;DHT22;11197;53.110;8.468;2023-03-23T15:05:59;14.50;99.90
22065;DHT22;11197;53.110;8.468;2023-03-23T15:08:33;14.60;99.90
22065;DHT22;11197;53.110;8.468;2023-03-23T15:11:07;14.60;99.90
22065;DHT22;11197;53.110;8.468;2023-03-23T15:13:41;14.60;99.90
22065;DHT22;11197;53.110;8.468;2023-03-23T15:16:29;14.60;99.90
22065;DHT22;11197;53.110;8.468;2023-03-23T15:18:59;14.60;99.90
22065;DHT22;11197;53.110;8.468;2023-03-23T15:21:50;14.60;99.90
22065;DHT22;11197;53.110;8.468;2023-03-23T15:24:31;14.60;99.90
22065;DHT22;11197;53.110;8.468;2023-03-23T15:27:16;14.60;99.90
22065;DHT22;11197;53.110;8.468;2023-03-23T15:29:58;14.50;99.90
22065;DHT22;11197;53.110;8.468;2023-03-23T15:32:31;14.60;99.90
22065;DHT22;11197;53.110;8.468;2023-03-23T15:35:10;14.50;99.90
22065;DHT22;11197;53.110;8.468;2023-03-23T15:37:51;14.50;99.90
22065;DHT22;11197;53.110;8.468;2023-03-23T15:40:27;14.50;99.90
22065;DHT22;11197;53.110;8.468;2023-03-23T15:45:34;14.50;99.90
22065;DHT22;11197;53.110;8.468;2023-03-23T15:48:13;14.50;99.90
22065;DHT22;11197;53.110;8.468;2023-03-23T15:50:40;14.50;99.90
22065;DHT22;11197;53.110;8.468;2023-03-23T15:53:27;14.50;99.90
22065;DHT22;11197;53.110;8.468;2023-03-23T15:55:53;14.40;99.90
22065;DHT22;11197;53.110;8.468;2023-03-23T15:58:19;14.40;99.90
22065;DHT22;11197;53.110;8.468;2023-03-23T16:00:45;14.30;99.90
22065;DHT22;11197;53.110;8.468;2023-03-23T16:03:21;14.30;99.90
22065;DHT22;11197;53.110;8.468;2023-03-23T16:05:50;14.20;99.90
22065;DHT22;11197;53.110;8.468;2023-03-23T16:08:16;14.20;99.90
22065;DHT22;11197;53.110;8.468;2023-03-23T16:10:42;14.30;99.90
22065;DHT22;11197;53.110;8.468;2023-03-23T16:13:08;14.30;99.90
22065;DHT22;11197;53.110;8.468;2023-03-23T16:15:34;14.20;99.90
22065;DHT22;11197;53.110;8.468;2023-03-23T16:18:00;14.20;99.90
22065;DHT22;11197;53.110;8.468;2023-03-23T16:20:28;14.10;99.90
22065;DHT22;11197;53.110;8.468;2023-03-23T16:22:58;14.10;99.90
22065;DHT22;11197;53.110;8.468;2023-03-23T16:25:25;14.10;99.90
22065;DHT22;11197;53.110;8.468;2023-03-23T16:27:51;14.00;99.90
22065;DHT22;11197;53.110;8.468;2023-03-23T16:30:28;14.00;99.90
22065;DHT22;11197;53.110;8.468;2023-03-23T16:32:54;13.90;99.90
22065;DHT22;11197;53.110;8.468;2023-03-23T16:35:21;14.00;99.90
22065;DHT22;11197;53.110;8.468;2023-03-23T16:37:49;13.90;99.90
22065;DHT22;11197;53.110;8.468;2023-03-23T16:40:16;13.90;99.90
22065;DHT22;11197;53.110;8.468;2023-03-23T16:42:43;13.90;99.90
22065;DHT22;11197;53.110;8.468;2023-03-23T16:45:09;13.90;99.90
22065;DHT22;11197;53.110;8.468;2023-03-23T16:47:37;13.80;99.90
22065;DHT22;11197;53.110;8.468;2023-03-23T16:50:04;13.70;99.90
22065;DHT22;11197;53.110;8.468;2023-03-23T16:52:32;13.70;99.90
22065;DHT22;11197;53.110;8.468;2023-03-23T16:54:58;13.60;99.90
22065;DHT22;11197;53.110;8.468;2023-03-23T16:57:24;13.60;99.90
22065;DHT22;11197;53.110;8.468;2023-03-23T16:59:51;13.60;99.90
22065;DHT22;11197;53.110;8.468;2023-03-23T17:02:16;13.50;99.90
22065;DHT22;11197;53.110;8.468;2023-03-23T17:04:44;13.60;99.90
22065;DHT22;11197;53.110;8.468;2023-03-23T17:07:12;13.60;99.90
22065;DHT22;11197;53.110;8.468;2023-03-23T17:09:38;13.50;99.90
22065;DHT22;11197;53.110;8.468;2023-03-23T17:12:04;13.50;99.90
22065;DHT22;11197;53.110;8.468;2023-03-23T17:14:31;13.50;99.90
22065;DHT22;11197;53.110;8.468;2023-03-23T17:16:57;13.40;99.90
22065;DHT22;11197;53.110;8.468;2023-03-23T17:19:24;13.30;99.90
22065;DHT22;11197;53.110;8.468;2023-03-23T17:21:50;13.30;99.90
22065;DHT22;11197;53.110;8.468;2023-03-23T17:24:16;13.30;99.90
22065;DHT22;11197;53.110;8.468;2023-03-23T17:26:42;13.20;99.90
22065;DHT22;11197;53.110;8.468;2023-03-23T17:29:08;13.20;99.90
22065;DHT22;11197;53.110;8.468;2023-03-23T17:31:34;13.10;99.90
22065;DHT22;11197;53.110;8.468;2023-03-23T17:34:01;13.10;99.90
22065;DHT22;11197;53.110;8.468;2023-03-23T17:36:26;13.10;99.90
22065;DHT22;11197;53.110;8.468;2023-03-23T17:38:53;13.00;99.90
22065;DHT22;11197;53.110;8.468;2023-03-23T17:41:19;12.90;99.90
22065;DHT22;11197;53.110;8.468;2023-03-23T17:43:48;12.90;99.90
22065;DHT22;11197;53.110;8.468;2023-03-23T17:46:14;12.90;99.90
22065;DHT22;11197;53.110;8.468;2023-03-23T17:48:40;12.80;99.90
22065;DHT22;11197;53.110;8.468;2023-03-23T17:51:06;12.90;99.90
22065;DHT22;11197;53.110;8.468;2023-03-23T17:53:33;12.80;99.90
22065;DHT22;11197;53.110;8.468;2023-03-23T17:56:03;12.80;99.90
22065;DHT22;11197;53.110;8.468;2023-03-23T17:58:30;12.80;99.90
22065;DHT22;11197;53.110;8.468;2023-03-23T18:00:56;12.60;99.90
22065;DHT22;11197;53.110;8.468;2023-03-23T18:03:26;13.00;99.90
22065;DHT22;11197;53.110;8.468;2023-03-23T18:06:02;13.10;99.90
22065;DHT22;11197;53.110;8.468;2023-03-23T18:08:29;13.30;99.90
22065;DHT22;11197;53.110;8.468;2023-03-23T18:10:56;13.20;99.90